Terminal Aerodrome Forecast
Issued by NWS

Home | Current Version | Previous Version | Text Only | Print | Product List | Glossary Off
Versions: 1 2 3 4 5 6 7 8 9 10 11 12 13 14 15 16 17 18 19 20 21 22 23 24 25 26 27 28 29 30 31 32

000
FTUS43 KLOT 222200 AAC
TAFMDW
TAF AMD
KMDW 222206Z 2222/2318 11013KT 2SM RA BR OVC006
      TEMPO 2223/2302 1 1/2SM RA BR OVC005
     FM230200 12012KT 2SM -DZRA BR OVC004
     FM230800 12010KT 1 1/2SM RA BR OVC004
     FM231200 19009KT 4SM BR OVC007
     FM231600 21012G18KT 6SM BR OVC012=

USA.gov is the U.S. government's official web portal to all federal, state and local government web resources and services.